sensor_id;sensor_type;location;lat;lon;timestamp;P1;durP1;ratioP1;P2;durP2;ratioP2
2998;SDS011;1509;51.964;7.628;2023-02-22T00:00:24;77.27;;;32.17;;
2998;SDS011;1509;51.964;7.628;2023-02-22T00:03:04;80.57;;;29.90;;
2998;SDS011;1509;51.964;7.628;2023-02-22T00:05:31;76.80;;;30.43;;
2998;SDS011;1509;51.964;7.628;2023-02-22T00:07:57;66.67;;;28.37;;
2998;SDS011;1509;51.964;7.628;2023-02-22T00:10:25;72.50;;;30.77;;
2998;SDS011;1509;51.964;7.628;2023-02-22T00:12:51;94.07;;;33.13;;
2998;SDS011;1509;51.964;7.628;2023-02-22T00:15:20;67.03;;;30.00;;
2998;SDS011;1509;51.964;7.628;2023-02-22T00:17:51;68.60;;;28.83;;
2998;SDS011;1509;51.964;7.628;2023-02-22T00:20:17;67.50;;;29.87;;
2998;SDS011;1509;51.964;7.628;2023-02-22T00:22:44;67.53;;;29.43;;
2998;SDS011;1509;51.964;7.628;2023-02-22T00:25:12;71.13;;;30.83;;
2998;SDS011;1509;51.964;7.628;2023-02-22T00:27:38;68.20;;;30.20;;
2998;SDS011;1509;51.964;7.628;2023-02-22T00:30:05;72.07;;;32.60;;
2998;SDS011;1509;51.964;7.628;2023-02-22T00:32:33;64.83;;;28.03;;
2998;SDS011;1509;51.964;7.628;2023-02-22T00:34:59;70.97;;;29.30;;
2998;SDS011;1509;51.964;7.628;2023-02-22T00:37:24;69.57;;;30.77;;
2998;SDS011;1509;51.964;7.628;2023-02-22T00:39:50;77.07;;;30.17;;
2998;SDS011;1509;51.964;7.628;2023-02-22T00:42:16;64.47;;;28.13;;
2998;SDS011;1509;51.964;7.628;2023-02-22T00:44:42;66.50;;;29.97;;
2998;SDS011;1509;51.964;7.628;2023-02-22T00:47:09;70.77;;;30.67;;
2998;SDS011;1509;51.964;7.628;2023-02-22T00:49:35;64.03;;;27.80;;
2998;SDS011;1509;51.964;7.628;2023-02-22T00:52:01;60.23;;;29.30;;
2998;SDS011;1509;51.964;7.628;2023-02-22T00:54:28;63.00;;;28.27;;
2998;SDS011;1509;51.964;7.628;2023-02-22T00:56:54;70.80;;;32.60;;
2998;SDS011;1509;51.964;7.628;2023-02-22T00:59:22;67.03;;;31.20;;
2998;SDS011;1509;51.964;7.628;2023-02-22T01:01:47;55.57;;;25.37;;
2998;SDS011;1509;51.964;7.628;2023-02-22T01:04:13;66.37;;;29.37;;
2998;SDS011;1509;51.964;7.628;2023-02-22T01:06:39;82.33;;;33.50;;
2998;SDS011;1509;51.964;7.628;2023-02-22T01:09:07;67.57;;;29.67;;
2998;SDS011;1509;51.964;7.628;2023-02-22T01:11:32;68.33;;;28.97;;
2998;SDS011;1509;51.964;7.628;2023-02-22T01:13:58;64.47;;;27.27;;
2998;SDS011;1509;51.964;7.628;2023-02-22T01:16:24;66.30;;;29.33;;
2998;SDS011;1509;51.964;7.628;2023-02-22T01:18:50;69.07;;;27.73;;
2998;SDS011;1509;51.964;7.628;2023-02-22T01:21:28;57.13;;;26.83;;
2998;SDS011;1509;51.964;7.628;2023-02-22T01:23:53;67.90;;;29.90;;
2998;SDS011;1509;51.964;7.628;2023-02-22T01:26:19;77.20;;;33.53;;
2998;SDS011;1509;51.964;7.628;2023-02-22T01:28:45;68.30;;;30.27;;
2998;SDS011;1509;51.964;7.628;2023-02-22T01:31:10;68.73;;;30.33;;
2998;SDS011;1509;51.964;7.628;2023-02-22T01:33:36;67.50;;;28.37;;
2998;SDS011;1509;51.964;7.628;2023-02-22T01:36:03;72.77;;;30.13;;
2998;SDS011;1509;51.964;7.628;2023-02-22T01:38:35;68.30;;;30.10;;
2998;SDS011;1509;51.964;7.628;2023-02-22T01:41:01;67.67;;;28.30;;
2998;SDS011;1509;51.964;7.628;2023-02-22T01:43:29;74.33;;;30.70;;
2998;SDS011;1509;51.964;7.628;2023-02-22T01:48:40;59.90;;;30.03;;
2998;SDS011;1509;51.964;7.628;2023-02-22T01:51:16;72.20;;;30.97;;
2998;SDS011;1509;51.964;7.628;2023-02-22T01:56:23;62.73;;;27.07;;
2998;SDS011;1509;51.964;7.628;2023-02-22T01:58:52;80.67;;;30.80;;
2998;SDS011;1509;51.964;7.628;2023-02-22T02:01:24;74.83;;;30.90;;
2998;SDS011;1509;51.964;7.628;2023-02-22T02:03:51;81.80;;;31.43;;
2998;SDS011;1509;51.964;7.628;2023-02-22T02:06:24;64.80;;;28.23;;
2998;SDS011;1509;51.964;7.628;2023-02-22T02:08:59;65.27;;;30.20;;
2998;SDS011;1509;51.964;7.628;2023-02-22T02:11:29;69.23;;;28.30;;
2998;SDS011;1509;51.964;7.628;2023-02-22T02:13:57;68.50;;;30.57;;
2998;SDS011;1509;51.964;7.628;2023-02-22T02:16:23;66.20;;;29.53;;
2998;SDS011;1509;51.964;7.628;2023-02-22T02:18:54;69.93;;;32.00;;
2998;SDS011;1509;51.964;7.628;2023-02-22T02:27:18;77.00;;;30.57;;
2998;SDS011;1509;51.964;7.628;2023-02-22T02:41:02;67.87;;;28.90;;
2998;SDS011;1509;51.964;7.628;2023-02-22T02:43:35;76.10;;;29.13;;
2998;SDS011;1509;51.964;7.628;2023-02-22T02:46:15;83.10;;;27.00;;
2998;SDS011;1509;51.964;7.628;2023-02-22T02:48:50;81.33;;;31.10;;
2998;SDS011;1509;51.964;7.628;2023-02-22T02:51:21;76.70;;;28.83;;
2998;SDS011;1509;51.964;7.628;2023-02-22T02:53:49;78.00;;;30.73;;
2998;SDS011;1509;51.964;7.628;2023-02-22T02:56:16;78.80;;;29.50;;
2998;SDS011;1509;51.964;7.628;2023-02-22T02:58:45;70.73;;;30.57;;
2998;SDS011;1509;51.964;7.628;2023-02-22T03:01:19;85.80;;;31.50;;
2998;SDS011;1509;51.964;7.628;2023-02-22T03:06:54;74.17;;;28.57;;
2998;SDS011;1509;51.964;7.628;2023-02-22T03:09:45;109.97;;;30.93;;
2998;SDS011;1509;51.964;7.628;2023-02-22T03:15:18;73.67;;;27.20;;
2998;SDS011;1509;51.964;7.628;2023-02-22T03:18:27;113.97;;;32.13;;
2998;SDS011;1509;51.964;7.628;2023-02-22T03:21:03;91.97;;;27.27;;
2998;SDS011;1509;51.964;7.628;2023-02-22T03:26:30;68.50;;;24.30;;
2998;SDS011;1509;51.964;7.628;2023-02-22T03:29:05;108.03;;;28.03;;
2998;SDS011;1509;51.964;7.628;2023-02-22T03:31:38;109.50;;;29.87;;
2998;SDS011;1509;51.964;7.628;2023-02-22T03:34:15;104.13;;;28.67;;
2998;SDS011;1509;51.964;7.628;2023-02-22T03:36:49;106.73;;;26.17;;
2998;SDS011;1509;51.964;7.628;2023-02-22T03:39:22;107.10;;;29.50;;
2998;SDS011;1509;51.964;7.628;2023-02-22T03:41:55;92.93;;;29.10;;
2998;SDS011;1509;51.964;7.628;2023-02-22T03:44:24;82.23;;;26.67;;
2998;SDS011;1509;51.964;7.628;2023-02-22T03:46:53;115.40;;;29.13;;
2998;SDS011;1509;51.964;7.628;2023-02-22T03:49:32;126.83;;;28.43;;
2998;SDS011;1509;51.964;7.628;2023-02-22T03:52:04;105.47;;;28.27;;
2998;SDS011;1509;51.964;7.628;2023-02-22T03:54:31;101.27;;;25.53;;
2998;SDS011;1509;51.964;7.628;2023-02-22T03:57:23;105.83;;;27.53;;
2998;SDS011;1509;51.964;7.628;2023-02-22T03:59:50;84.07;;;25.03;;
2998;SDS011;1509;51.964;7.628;2023-02-22T04:02:16;75.33;;;22.40;;
2998;SDS011;1509;51.964;7.628;2023-02-22T04:04:43;73.73;;;24.53;;
2998;SDS011;1509;51.964;7.628;2023-02-22T04:07:12;100.90;;;24.33;;
2998;SDS011;1509;51.964;7.628;2023-02-22T04:09:38;88.40;;;27.20;;
2998;SDS011;1509;51.964;7.628;2023-02-22T04:12:04;64.37;;;19.57;;
2998;SDS011;1509;51.964;7.628;2023-02-22T04:14:30;69.37;;;21.57;;
2998;SDS011;1509;51.964;7.628;2023-02-22T04:16:55;63.47;;;26.60;;
2998;SDS011;1509;51.964;7.628;2023-02-22T04:19:21;83.23;;;21.30;;
2998;SDS011;1509;51.964;7.628;2023-02-22T04:21:46;58.07;;;20.43;;
2998;SDS011;1509;51.964;7.628;2023-02-22T04:24:15;55.20;;;18.20;;
2998;SDS011;1509;51.964;7.628;2023-02-22T04:26:41;61.70;;;21.07;;
2998;SDS011;1509;51.964;7.628;2023-02-22T04:29:06;54.63;;;19.23;;
2998;SDS011;1509;51.964;7.628;2023-02-22T04:31:35;58.80;;;22.00;;
2998;SDS011;1509;51.964;7.628;2023-02-22T04:34:01;50.57;;;18.97;;
2998;SDS011;1509;51.964;7.628;2023-02-22T04:36:27;47.93;;;20.93;;
2998;SDS011;1509;51.964;7.628;2023-02-22T04:38:55;58.17;;;20.60;;
2998;SDS011;1509;51.964;7.628;2023-02-22T04:41:24;79.93;;;23.03;;
2998;SDS011;1509;51.964;7.628;2023-02-22T04:43:50;55.17;;;21.53;;
2998;SDS011;1509;51.964;7.628;2023-02-22T04:46:16;68.43;;;21.60;;
2998;SDS011;1509;51.964;7.628;2023-02-22T04:48:42;48.40;;;20.27;;
2998;SDS011;1509;51.964;7.628;2023-02-22T04:51:08;50.63;;;17.97;;
2998;SDS011;1509;51.964;7.628;2023-02-22T04:53:34;38.40;;;17.27;;
2998;SDS011;1509;51.964;7.628;2023-02-22T04:56:00;50.00;;;21.10;;
2998;SDS011;1509;51.964;7.628;2023-02-22T04:58:26;47.23;;;20.47;;
2998;SDS011;1509;51.964;7.628;2023-02-22T05:00:58;47.73;;;18.80;;
2998;SDS011;1509;51.964;7.628;2023-02-22T05:03:24;47.00;;;17.90;;
2998;SDS011;1509;51.964;7.628;2023-02-22T05:05:50;56.20;;;19.37;;
2998;SDS011;1509;51.964;7.628;2023-02-22T05:08:16;41.33;;;21.53;;
2998;SDS011;1509;51.964;7.628;2023-02-22T05:10:42;52.67;;;19.10;;
2998;SDS011;1509;51.964;7.628;2023-02-22T05:13:08;67.33;;;20.77;;
2998;SDS011;1509;51.964;7.628;2023-02-22T05:15:34;42.23;;;18.57;;
2998;SDS011;1509;51.964;7.628;2023-02-22T05:17:59;54.43;;;20.57;;
2998;SDS011;1509;51.964;7.628;2023-02-22T05:20:26;55.53;;;17.83;;
2998;SDS011;1509;51.964;7.628;2023-02-22T05:22:57;61.17;;;18.27;;
2998;SDS011;1509;51.964;7.628;2023-02-22T05:25:24;46.60;;;18.53;;
2998;SDS011;1509;51.964;7.628;2023-02-22T05:27:55;61.20;;;18.33;;
2998;SDS011;1509;51.964;7.628;2023-02-22T05:30:24;58.73;;;19.13;;
2998;SDS011;1509;51.964;7.628;2023-02-22T05:32:51;76.27;;;21.93;;
2998;SDS011;1509;51.964;7.628;2023-02-22T05:35:20;82.83;;;21.27;;
2998;SDS011;1509;51.964;7.628;2023-02-22T05:37:48;79.83;;;20.43;;
2998;SDS011;1509;51.964;7.628;2023-02-22T05:40:21;78.40;;;22.87;;
2998;SDS011;1509;51.964;7.628;2023-02-22T05:42:50;52.13;;;18.57;;
2998;SDS011;1509;51.964;7.628;2023-02-22T05:45:17;78.77;;;22.37;;
2998;SDS011;1509;51.964;7.628;2023-02-22T05:47:44;54.30;;;20.90;;
2998;SDS011;1509;51.964;7.628;2023-02-22T05:50:13;75.40;;;20.50;;
2998;SDS011;1509;51.964;7.628;2023-02-22T05:52:40;88.13;;;20.70;;
2998;SDS011;1509;51.964;7.628;2023-02-22T05:55:06;53.37;;;18.50;;
2998;SDS011;1509;51.964;7.628;2023-02-22T05:57:34;59.33;;;20.10;;
2998;SDS011;1509;51.964;7.628;2023-02-22T06:00:04;85.27;;;19.40;;
2998;SDS011;1509;51.964;7.628;2023-02-22T06:02:31;66.43;;;18.97;;
2998;SDS011;1509;51.964;7.628;2023-02-22T06:04:57;36.00;;;16.23;;
2998;SDS011;1509;51.964;7.628;2023-02-22T06:07:23;50.87;;;18.87;;
2998;SDS011;1509;51.964;7.628;2023-02-22T06:09:49;61.63;;;18.17;;
2998;SDS011;1509;51.964;7.628;2023-02-22T06:12:14;48.93;;;19.20;;
2998;SDS011;1509;51.964;7.628;2023-02-22T06:14:41;61.00;;;19.97;;
2998;SDS011;1509;51.964;7.628;2023-02-22T06:17:10;47.57;;;16.73;;
2998;SDS011;1509;51.964;7.628;2023-02-22T06:19:37;56.53;;;19.50;;
2998;SDS011;1509;51.964;7.628;2023-02-22T06:22:04;58.40;;;20.83;;
2998;SDS011;1509;51.964;7.628;2023-02-22T06:24:30;48.47;;;18.20;;
2998;SDS011;1509;51.964;7.628;2023-02-22T06:26:56;53.83;;;19.50;;
2998;SDS011;1509;51.964;7.628;2023-02-22T06:29:26;39.63;;;17.87;;
2998;SDS011;1509;51.964;7.628;2023-02-22T06:31:53;43.57;;;18.90;;
2998;SDS011;1509;51.964;7.628;2023-02-22T06:34:19;41.13;;;16.80;;
2998;SDS011;1509;51.964;7.628;2023-02-22T06:36:50;35.70;;;15.87;;
2998;SDS011;1509;51.964;7.628;2023-02-22T06:39:16;42.30;;;18.97;;
2998;SDS011;1509;51.964;7.628;2023-02-22T06:41:43;46.50;;;16.33;;
2998;SDS011;1509;51.964;7.628;2023-02-22T06:44:10;54.63;;;16.17;;
2998;SDS011;1509;51.964;7.628;2023-02-22T06:46:37;39.07;;;17.53;;
2998;SDS011;1509;51.964;7.628;2023-02-22T06:49:03;44.37;;;16.80;;
2998;SDS011;1509;51.964;7.628;2023-02-22T06:51:30;50.27;;;22.17;;
2998;SDS011;1509;51.964;7.628;2023-02-22T06:53:59;59.40;;;21.10;;
2998;SDS011;1509;51.964;7.628;2023-02-22T06:56:28;48.53;;;18.03;;
2998;SDS011;1509;51.964;7.628;2023-02-22T06:58:54;59.40;;;18.50;;
2998;SDS011;1509;51.964;7.628;2023-02-22T07:01:19;51.90;;;17.60;;
2998;SDS011;1509;51.964;7.628;2023-02-22T07:03:45;49.40;;;17.80;;
2998;SDS011;1509;51.964;7.628;2023-02-22T07:06:12;38.97;;;17.27;;
2998;SDS011;1509;51.964;7.628;2023-02-22T07:08:38;69.50;;;17.97;;
2998;SDS011;1509;51.964;7.628;2023-02-22T07:11:03;51.10;;;18.50;;
2998;SDS011;1509;51.964;7.628;2023-02-22T07:13:29;56.70;;;18.20;;
2998;SDS011;1509;51.964;7.628;2023-02-22T07:15:55;40.33;;;16.60;;
2998;SDS011;1509;51.964;7.628;2023-02-22T07:18:21;39.20;;;14.77;;
2998;SDS011;1509;51.964;7.628;2023-02-22T07:20:48;45.60;;;17.17;;
2998;SDS011;1509;51.964;7.628;2023-02-22T07:23:14;47.10;;;17.47;;
2998;SDS011;1509;51.964;7.628;2023-02-22T07:25:41;29.57;;;15.20;;
2998;SDS011;1509;51.964;7.628;2023-02-22T07:28:07;32.40;;;15.97;;
2998;SDS011;1509;51.964;7.628;2023-02-22T07:30:34;35.80;;;15.87;;
2998;SDS011;1509;51.964;7.628;2023-02-22T07:33:01;40.30;;;17.00;;
2998;SDS011;1509;51.964;7.628;2023-02-22T07:35:34;28.40;;;14.33;;
2998;SDS011;1509;51.964;7.628;2023-02-22T07:38:01;29.00;;;14.80;;
2998;SDS011;1509;51.964;7.628;2023-02-22T07:40:28;32.90;;;14.17;;
2998;SDS011;1509;51.964;7.628;2023-02-22T07:45:24;34.53;;;14.27;;
2998;SDS011;1509;51.964;7.628;2023-02-22T07:47:52;29.77;;;15.27;;
2998;SDS011;1509;51.964;7.628;2023-02-22T07:50:18;30.67;;;15.20;;
2998;SDS011;1509;51.964;7.628;2023-02-22T07:52:45;30.40;;;14.07;;
2998;SDS011;1509;51.964;7.628;2023-02-22T07:55:13;28.17;;;14.77;;
2998;SDS011;1509;51.964;7.628;2023-02-22T07:57:41;31.20;;;13.23;;
2998;SDS011;1509;51.964;7.628;2023-02-22T08:00:07;27.77;;;15.10;;
2998;SDS011;1509;51.964;7.628;2023-02-22T08:02:33;30.30;;;14.07;;
2998;SDS011;1509;51.964;7.628;2023-02-22T08:04:59;26.77;;;15.03;;
2998;SDS011;1509;51.964;7.628;2023-02-22T08:07:24;29.37;;;14.30;;
2998;SDS011;1509;51.964;7.628;2023-02-22T08:09:50;26.90;;;13.03;;
2998;SDS011;1509;51.964;7.628;2023-02-22T08:12:16;29.13;;;14.00;;
2998;SDS011;1509;51.964;7.628;2023-02-22T08:14:41;27.60;;;15.40;;
2998;SDS011;1509;51.964;7.628;2023-02-22T08:17:07;22.77;;;11.90;;
2998;SDS011;1509;51.964;7.628;2023-02-22T08:19:34;20.10;;;11.37;;
2998;SDS011;1509;51.964;7.628;2023-02-22T08:22:00;20.60;;;11.77;;
2998;SDS011;1509;51.964;7.628;2023-02-22T08:24:25;21.90;;;11.93;;
2998;SDS011;1509;51.964;7.628;2023-02-22T08:26:51;22.17;;;11.60;;
2998;SDS011;1509;51.964;7.628;2023-02-22T08:29:17;19.50;;;11.13;;
2998;SDS011;1509;51.964;7.628;2023-02-22T08:31:42;19.40;;;12.43;;
2998;SDS011;1509;51.964;7.628;2023-02-22T08:34:14;20.53;;;11.97;;
2998;SDS011;1509;51.964;7.628;2023-02-22T08:36:41;16.77;;;11.73;;
2998;SDS011;1509;51.964;7.628;2023-02-22T08:39:06;23.17;;;12.70;;
2998;SDS011;1509;51.964;7.628;2023-02-22T08:41:32;16.80;;;10.40;;
2998;SDS011;1509;51.964;7.628;2023-02-22T08:43:58;23.97;;;12.00;;
2998;SDS011;1509;51.964;7.628;2023-02-22T08:46:26;18.80;;;11.03;;
2998;SDS011;1509;51.964;7.628;2023-02-22T08:48:52;22.00;;;12.07;;
2998;SDS011;1509;51.964;7.628;2023-02-22T08:51:18;15.10;;;10.20;;
2998;SDS011;1509;51.964;7.628;2023-02-22T08:53:44;19.83;;;12.90;;
2998;SDS011;1509;51.964;7.628;2023-02-22T08:56:10;18.00;;;10.63;;
2998;SDS011;1509;51.964;7.628;2023-02-22T08:58:36;15.83;;;10.03;;
2998;SDS011;1509;51.964;7.628;2023-02-22T09:01:01;16.20;;;9.20;;
2998;SDS011;1509;51.964;7.628;2023-02-22T09:03:29;16.43;;;9.90;;
2998;SDS011;1509;51.964;7.628;2023-02-22T09:05:55;15.63;;;10.50;;
2998;SDS011;1509;51.964;7.628;2023-02-22T09:08:23;20.23;;;10.37;;
2998;SDS011;1509;51.964;7.628;2023-02-22T09:10:49;16.73;;;10.13;;
2998;SDS011;1509;51.964;7.628;2023-02-22T09:13:15;14.40;;;10.30;;
2998;SDS011;1509;51.964;7.628;2023-02-22T09:15:41;15.80;;;10.10;;
2998;SDS011;1509;51.964;7.628;2023-02-22T09:18:10;15.70;;;10.20;;
2998;SDS011;1509;51.964;7.628;2023-02-22T09:20:38;12.37;;;8.67;;
2998;SDS011;1509;51.964;7.628;2023-02-22T09:23:08;16.43;;;10.60;;
2998;SDS011;1509;51.964;7.628;2023-02-22T09:25:34;14.17;;;9.50;;
2998;SDS011;1509;51.964;7.628;2023-02-22T09:28:00;15.07;;;9.50;;
2998;SDS011;1509;51.964;7.628;2023-02-22T09:30:28;16.93;;;10.23;;
2998;SDS011;1509;51.964;7.628;2023-02-22T09:33:19;13.57;;;9.30;;
2998;SDS011;1509;51.964;7.628;2023-02-22T09:35:45;15.63;;;9.93;;
2998;SDS011;1509;51.964;7.628;2023-02-22T09:38:14;17.30;;;10.23;;
2998;SDS011;1509;51.964;7.628;2023-02-22T09:40:55;13.60;;;9.70;;
2998;SDS011;1509;51.964;7.628;2023-02-22T09:46:36;18.10;;;9.23;;
2998;SDS011;1509;51.964;7.628;2023-02-22T09:51:47;11.50;;;7.30;;
2998;SDS011;1509;51.964;7.628;2023-02-22T09:54:36;15.00;;;9.13;;
2998;SDS011;1509;51.964;7.628;2023-02-22T09:57:17;12.77;;;8.37;;
2998;SDS011;1509;51.964;7.628;2023-02-22T09:59:59;12.60;;;9.10;;
2998;SDS011;1509;51.964;7.628;2023-02-22T10:02:38;14.10;;;9.00;;
2998;SDS011;1509;51.964;7.628;2023-02-22T10:05:15;13.00;;;9.00;;
2998;SDS011;1509;51.964;7.628;2023-02-22T10:07:49;15.50;;;9.63;;
2998;SDS011;1509;51.964;7.628;2023-02-22T10:10:20;14.47;;;9.43;;
2998;SDS011;1509;51.964;7.628;2023-02-22T10:12:50;13.63;;;9.67;;
2998;SDS011;1509;51.964;7.628;2023-02-22T10:15:25;12.33;;;8.90;;
2998;SDS011;1509;51.964;7.628;2023-02-22T10:18:16;11.03;;;8.37;;
2998;SDS011;1509;51.964;7.628;2023-02-22T10:26:41;13.40;;;8.40;;
2998;SDS011;1509;51.964;7.628;2023-02-22T10:32:07;16.30;;;9.87;;
2998;SDS011;1509;51.964;7.628;2023-02-22T10:34:42;12.70;;;9.50;;
2998;SDS011;1509;51.964;7.628;2023-02-22T10:39:48;13.87;;;9.00;;
2998;SDS011;1509;51.964;7.628;2023-02-22T10:42:16;14.90;;;9.77;;
2998;SDS011;1509;51.964;7.628;2023-02-22T10:44:45;14.47;;;8.30;;
2998;SDS011;1509;51.964;7.628;2023-02-22T10:47:12;13.33;;;9.20;;
2998;SDS011;1509;51.964;7.628;2023-02-22T10:49:41;13.53;;;8.90;;
2998;SDS011;1509;51.964;7.628;2023-02-22T10:52:16;16.83;;;10.43;;
2998;SDS011;1509;51.964;7.628;2023-02-22T10:54:54;15.00;;;10.33;;
2998;SDS011;1509;51.964;7.628;2023-02-22T10:57:29;13.67;;;9.47;;
2998;SDS011;1509;51.964;7.628;2023-02-22T11:00:13;14.93;;;9.30;;
2998;SDS011;1509;51.964;7.628;2023-02-22T11:02:55;14.70;;;8.50;;
2998;SDS011;1509;51.964;7.628;2023-02-22T11:10:58;13.10;;;9.03;;
2998;SDS011;1509;51.964;7.628;2023-02-22T11:13:36;18.97;;;10.40;;
2998;SDS011;1509;51.964;7.628;2023-02-22T11:16:19;16.83;;;10.70;;
2998;SDS011;1509;51.964;7.628;2023-02-22T11:18:55;14.43;;;10.10;;
2998;SDS011;1509;51.964;7.628;2023-02-22T11:21:36;11.13;;;8.87;;
2998;SDS011;1509;51.964;7.628;2023-02-22T11:24:08;16.87;;;8.80;;
2998;SDS011;1509;51.964;7.628;2023-02-22T11:26:42;14.40;;;9.50;;
2998;SDS011;1509;51.964;7.628;2023-02-22T11:29:21;12.03;;;8.50;;
2998;SDS011;1509;51.964;7.628;2023-02-22T11:31:58;11.83;;;9.00;;
2998;SDS011;1509;51.964;7.628;2023-02-22T11:34:34;16.60;;;8.33;;
2998;SDS011;1509;51.964;7.628;2023-02-22T11:37:22;14.67;;;8.70;;
2998;SDS011;1509;51.964;7.628;2023-02-22T11:42:30;10.53;;;8.07;;
2998;SDS011;1509;51.964;7.628;2023-02-22T11:45:13;15.53;;;9.90;;
2998;SDS011;1509;51.964;7.628;2023-02-22T11:47:50;14.30;;;8.70;;
2998;SDS011;1509;51.964;7.628;2023-02-22T11:50:30;10.23;;;7.93;;
2998;SDS011;1509;51.964;7.628;2023-02-22T12:03:33;15.37;;;9.07;;
2998;SDS011;1509;51.964;7.628;2023-02-22T12:11:21;13.73;;;8.40;;
2998;SDS011;1509;51.964;7.628;2023-02-22T12:13:59;14.10;;;9.47;;
2998;SDS011;1509;51.964;7.628;2023-02-22T12:19:45;16.13;;;8.57;;
2998;SDS011;1509;51.964;7.628;2023-02-22T12:22:16;16.00;;;9.07;;
2998;SDS011;1509;51.964;7.628;2023-02-22T12:27:18;16.47;;;8.70;;
2998;SDS011;1509;51.964;7.628;2023-02-22T12:29:49;12.97;;;8.50;;
2998;SDS011;1509;51.964;7.628;2023-02-22T12:32:23;11.93;;;8.47;;
2998;SDS011;1509;51.964;7.628;2023-02-22T12:35:01;15.70;;;9.07;;
2998;SDS011;1509;51.964;7.628;2023-02-22T12:46:24;14.60;;;8.60;;
2998;SDS011;1509;51.964;7.628;2023-02-22T12:49:15;10.17;;;8.43;;
2998;SDS011;1509;51.964;7.628;2023-02-22T12:57:41;10.07;;;7.73;;
2998;SDS011;1509;51.964;7.628;2023-02-22T13:00:18;11.73;;;8.20;;
2998;SDS011;1509;51.964;7.628;2023-02-22T13:05:46;10.07;;;8.20;;
2998;SDS011;1509;51.964;7.628;2023-02-22T13:08:22;10.97;;;8.00;;
2998;SDS011;1509;51.964;7.628;2023-02-22T13:11:07;12.00;;;7.83;;
2998;SDS011;1509;51.964;7.628;2023-02-22T13:22:08;15.90;;;8.17;;
2998;SDS011;1509;51.964;7.628;2023-02-22T13:27:17;14.07;;;8.40;;
2998;SDS011;1509;51.964;7.628;2023-02-22T13:29:47;11.50;;;8.90;;
2998;SDS011;1509;51.964;7.628;2023-02-22T13:34:48;10.60;;;6.93;;
2998;SDS011;1509;51.964;7.628;2023-02-22T13:43:15;12.50;;;8.40;;
2998;SDS011;1509;51.964;7.628;2023-02-22T13:54:06;13.43;;;9.10;;
2998;SDS011;1509;51.964;7.628;2023-02-22T13:56:42;12.40;;;7.50;;
2998;SDS011;1509;51.964;7.628;2023-02-22T13:59:30;11.57;;;8.60;;
2998;SDS011;1509;51.964;7.628;2023-02-22T14:01:58;12.77;;;8.23;;
2998;SDS011;1509;51.964;7.628;2023-02-22T14:07:00;11.03;;;8.00;;
2998;SDS011;1509;51.964;7.628;2023-02-22T14:09:48;12.40;;;8.07;;
2998;SDS011;1509;51.964;7.628;2023-02-22T14:17:37;11.70;;;8.50;;
2998;SDS011;1509;51.964;7.628;2023-02-22T14:22:40;11.10;;;8.10;;
2998;SDS011;1509;51.964;7.628;2023-02-22T14:27:54;14.23;;;9.93;;
2998;SDS011;1509;51.964;7.628;2023-02-22T14:30:23;10.30;;;8.20;;
2998;SDS011;1509;51.964;7.628;2023-02-22T14:32:51;11.30;;;7.40;;
2998;SDS011;1509;51.964;7.628;2023-02-22T14:35:17;14.00;;;9.13;;
2998;SDS011;1509;51.964;7.628;2023-02-22T14:37:47;13.53;;;8.50;;
2998;SDS011;1509;51.964;7.628;2023-02-22T14:40:25;10.93;;;7.30;;
2998;SDS011;1509;51.964;7.628;2023-02-22T14:42:58;12.60;;;8.40;;
2998;SDS011;1509;51.964;7.628;2023-02-22T14:45:39;11.97;;;7.63;;
2998;SDS011;1509;51.964;7.628;2023-02-22T14:48:26;12.23;;;8.83;;
2998;SDS011;1509;51.964;7.628;2023-02-22T14:53:23;13.40;;;8.67;;
2998;SDS011;1509;51.964;7.628;2023-02-22T15:01:37;14.80;;;8.40;;
2998;SDS011;1509;51.964;7.628;2023-02-22T15:06:46;9.63;;;7.70;;
2998;SDS011;1509;51.964;7.628;2023-02-22T15:11:48;10.77;;;7.17;;
2998;SDS011;1509;51.964;7.628;2023-02-22T15:14:17;12.33;;;8.77;;
2998;SDS011;1509;51.964;7.628;2023-02-22T15:16:46;11.47;;;8.30;;
2998;SDS011;1509;51.964;7.628;2023-02-22T15:19:19;14.13;;;8.70;;
2998;SDS011;1509;51.964;7.628;2023-02-22T15:21:51;16.90;;;8.80;;
2998;SDS011;1509;51.964;7.628;2023-02-22T15:27:26;9.93;;;8.13;;
2998;SDS011;1509;51.964;7.628;2023-02-22T15:29:59;12.77;;;7.67;;
2998;SDS011;1509;51.964;7.628;2023-02-22T15:37:59;12.83;;;7.50;;
2998;SDS011;1509;51.964;7.628;2023-02-22T15:40:26;11.47;;;7.80;;
2998;SDS011;1509;51.964;7.628;2023-02-22T15:42:57;13.50;;;9.20;;
2998;SDS011;1509;51.964;7.628;2023-02-22T15:45:28;13.47;;;9.20;;
2998;SDS011;1509;51.964;7.628;2023-02-22T15:47:56;17.30;;;10.23;;
2998;SDS011;1509;51.964;7.628;2023-02-22T15:50:28;17.97;;;9.47;;
2998;SDS011;1509;51.964;7.628;2023-02-22T15:53:03;15.43;;;8.93;;
2998;SDS011;1509;51.964;7.628;2023-02-22T15:55:33;12.70;;;8.20;;
2998;SDS011;1509;51.964;7.628;2023-02-22T15:58:11;13.03;;;8.93;;
2998;SDS011;1509;51.964;7.628;2023-02-22T16:00:47;11.20;;;8.57;;
2998;SDS011;1509;51.964;7.628;2023-02-22T16:03:44;13.07;;;8.13;;
2998;SDS011;1509;51.964;7.628;2023-02-22T16:06:35;13.77;;;8.67;;
2998;SDS011;1509;51.964;7.628;2023-02-22T16:09:00;16.90;;;8.17;;
2998;SDS011;1509;51.964;7.628;2023-02-22T16:11:36;15.73;;;8.47;;
2998;SDS011;1509;51.964;7.628;2023-02-22T16:14:26;13.10;;;9.77;;
2998;SDS011;1509;51.964;7.628;2023-02-22T16:19:49;12.63;;;9.00;;
2998;SDS011;1509;51.964;7.628;2023-02-22T16:22:27;15.00;;;8.50;;
2998;SDS011;1509;51.964;7.628;2023-02-22T16:32:48;12.20;;;9.20;;
2998;SDS011;1509;51.964;7.628;2023-02-22T16:35:15;12.10;;;8.60;;
2998;SDS011;1509;51.964;7.628;2023-02-22T16:37:50;13.93;;;9.13;;
2998;SDS011;1509;51.964;7.628;2023-02-22T16:40:22;13.27;;;9.57;;
2998;SDS011;1509;51.964;7.628;2023-02-22T16:42:57;14.23;;;9.10;;
2998;SDS011;1509;51.964;7.628;2023-02-22T16:45:24;13.40;;;8.80;;
2998;SDS011;1509;51.964;7.628;2023-02-22T16:47:49;12.83;;;8.10;;
2998;SDS011;1509;51.964;7.628;2023-02-22T16:50:17;15.60;;;9.10;;
2998;SDS011;1509;51.964;7.628;2023-02-22T16:52:44;15.57;;;8.73;;
2998;SDS011;1509;51.964;7.628;2023-02-22T16:55:13;14.93;;;9.27;;
2998;SDS011;1509;51.964;7.628;2023-02-22T16:57:41;16.03;;;8.17;;
2998;SDS011;1509;51.964;7.628;2023-02-22T17:00:13;13.27;;;8.40;;
2998;SDS011;1509;51.964;7.628;2023-02-22T17:02:41;11.20;;;8.83;;
2998;SDS011;1509;51.964;7.628;2023-02-22T17:05:11;10.50;;;8.13;;
2998;SDS011;1509;51.964;7.628;2023-02-22T17:07:38;13.10;;;8.83;;
2998;SDS011;1509;51.964;7.628;2023-02-22T17:10:04;11.53;;;7.40;;
2998;SDS011;1509;51.964;7.628;2023-02-22T17:12:31;14.90;;;8.00;;
2998;SDS011;1509;51.964;7.628;2023-02-22T17:14:57;11.23;;;8.60;;
2998;SDS011;1509;51.964;7.628;2023-02-22T17:17:22;14.70;;;10.27;;
2998;SDS011;1509;51.964;7.628;2023-02-22T17:19:48;15.23;;;9.93;;
2998;SDS011;1509;51.964;7.628;2023-02-22T17:22:17;16.53;;;8.83;;
2998;SDS011;1509;51.964;7.628;2023-02-22T17:24:45;18.57;;;10.27;;
2998;SDS011;1509;51.964;7.628;2023-02-22T17:27:11;21.30;;;11.93;;
2998;SDS011;1509;51.964;7.628;2023-02-22T17:29:36;17.20;;;9.67;;
2998;SDS011;1509;51.964;7.628;2023-02-22T17:32:03;15.37;;;9.50;;
2998;SDS011;1509;51.964;7.628;2023-02-22T17:34:28;17.60;;;9.80;;
2998;SDS011;1509;51.964;7.628;2023-02-22T17:36:54;19.13;;;9.03;;
2998;SDS011;1509;51.964;7.628;2023-02-22T17:39:20;15.47;;;9.27;;
2998;SDS011;1509;51.964;7.628;2023-02-22T17:41:45;17.60;;;8.50;;
2998;SDS011;1509;51.964;7.628;2023-02-22T17:44:12;15.80;;;9.67;;
2998;SDS011;1509;51.964;7.628;2023-02-22T17:46:38;17.50;;;9.73;;
2998;SDS011;1509;51.964;7.628;2023-02-22T17:49:04;20.77;;;9.67;;
2998;SDS011;1509;51.964;7.628;2023-02-22T17:51:31;15.70;;;8.90;;
2998;SDS011;1509;51.964;7.628;2023-02-22T17:53:56;18.57;;;11.40;;
2998;SDS011;1509;51.964;7.628;2023-02-22T17:56:22;14.10;;;9.50;;
2998;SDS011;1509;51.964;7.628;2023-02-22T17:58:49;15.60;;;10.47;;
2998;SDS011;1509;51.964;7.628;2023-02-22T18:01:21;18.80;;;10.07;;